Time;durP1;ratioP1;P1;durP2;ratioP2;P2;SDS_P1;SDS_P2;PMS_P1;PMS_P2;Temp;Humidity;BMP_temperature;BMP_pressure;BME280_temperature;BME280_humidity;BME280_pressure;Samples;Min_cycle;Max_cycle;Signal;HPM_P1;HPM_P2
2021/01/15 00:00:59;;;;;;;6.63;4.10;;;2.40;99.90;;;;;;5010740;28;20187;-79
2021/01/15 00:03:25;;;;;;;4.72;3.28;;;2.40;99.90;;;;;;5010384;28;20986;-81
2021/01/15 00:05:50;;;;;;;6.53;4.20;;;2.40;99.90;;;;;;4977398;28;20277;-80
2021/01/15 00:08:16;;;;;;;5.83;4.10;;;2.40;99.90;;;;;;4977080;28;20175;-81
2021/01/15 00:10:42;;;;;;;6.40;4.23;;;2.40;99.90;;;;;;4992196;28;20189;-78
2021/01/15 00:13:07;;;;;;;5.30;3.90;;;2.30;99.90;;;;;;4992641;28;20171;-79
2021/01/15 00:15:33;;;;;;;6.60;3.60;;;2.30;99.90;;;;;;4976777;28;20229;-80
2021/01/15 00:17:59;;;;;;;5.43;2.90;;;2.30;99.90;;;;;;5010059;28;20171;-79
2021/01/15 00:20:24;;;;;;;8.57;5.00;;;2.30;99.90;;;;;;4977813;28;20206;-80
2021/01/15 00:22:50;;;;;;;9.33;4.53;;;2.20;99.90;;;;;;4993561;28;20178;-79
2021/01/15 00:25:16;;;;;;;4.80;3.13;;;2.30;99.90;;;;;;4974531;28;20238;-79
2021/01/15 00:27:41;;;;;;;6.20;3.70;;;2.30;99.90;;;;;;4990203;28;20726;-80
2021/01/15 00:30:09;;;;;;;4.90;3.63;;;2.30;99.90;;;;;;5003972;28;20171;-80
2021/01/15 00:32:36;;;;;;;4.75;3.40;;;2.30;99.90;;;;;;4984042;28;20457;-79
2021/01/15 00:35:04;;;;;;;4.90;4.13;;;2.30;99.90;;;;;;4985558;28;20214;-79
2021/01/15 00:37:30;;;;;;;6.72;3.65;;;2.30;99.90;;;;;;4979745;28;20191;-80
2021/01/15 00:39:56;;;;;;;4.63;3.03;;;2.30;99.90;;;;;;4976927;28;20199;-80
2021/01/15 00:42:21;;;;;;;8.13;4.30;;;2.20;99.90;;;;;;4992298;28;20179;-81
2021/01/15 00:44:47;;;;;;;4.37;3.07;;;2.20;99.90;;;;;;4993954;28;20210;-80
2021/01/15 00:47:13;;;;;;;6.37;4.17;;;2.10;99.90;;;;;;4960476;28;20202;-80
2021/01/15 00:49:39;;;;;;;5.57;3.83;;;2.20;99.90;;;;;;4993640;28;20182;-80
2021/01/15 00:52:05;;;;;;;5.07;3.83;;;2.20;99.90;;;;;;4992895;28;20406;-80
2021/01/15 00:54:30;;;;;;;6.33;3.90;;;2.20;99.90;;;;;;4992223;28;20498;-79
2021/01/15 00:57:01;;;;;;;4.40;3.40;;;2.20;99.90;;;;;;4992905;28;20428;-80
2021/01/15 00:59:27;;;;;;;5.30;3.58;;;2.10;99.90;;;;;;4992815;28;20425;-80
2021/01/15 01:01:53;;;;;;;7.47;3.50;;;2.10;99.90;;;;;;4959213;28;20270;-80
2021/01/15 01:04:18;;;;;;;6.00;3.70;;;2.10;99.90;;;;;;5008845;28;20833;-80
2021/01/15 01:06:44;;;;;;;6.33;4.10;;;2.10;99.90;;;;;;4959655;28;20441;-79
2021/01/15 01:09:10;;;;;;;6.67;3.70;;;2.10;99.90;;;;;;4975379;28;20202;-80
2021/01/15 01:11:36;;;;;;;9.68;3.50;;;2.10;99.90;;;;;;4992019;28;20422;-80
2021/01/15 01:14:03;;;;;;;10.53;4.07;;;2.10;99.90;;;;;;5009199;28;20171;-80
2021/01/15 01:16:30;;;;;;;6.38;4.40;;;2.00;99.90;;;;;;4990863;28;20524;-80
2021/01/15 01:18:55;;;;;;;8.40;4.00;;;2.00;99.90;;;;;;5008741;28;20578;-80
2021/01/15 01:21:22;;;;;;;8.50;4.70;;;2.00;99.90;;;;;;4992067;28;20198;-80
2021/01/15 01:23:48;;;;;;;6.03;2.95;;;2.00;99.90;;;;;;4975702;28;20179;-81
2021/01/15 01:26:14;;;;;;;7.80;4.00;;;2.00;99.90;;;;;;4975120;28;20244;-81
2021/01/15 01:28:42;;;;;;;4.90;3.45;;;2.00;99.90;;;;;;4975683;28;20425;-80
2021/01/15 01:31:12;;;;;;;5.00;3.90;;;2.00;99.90;;;;;;5008675;28;20181;-80
2021/01/15 01:33:38;;;;;;;8.10;4.07;;;1.90;99.90;;;;;;4991540;28;20171;-80
2021/01/15 01:36:05;;;;;;;4.05;3.40;;;1.90;99.90;;;;;;4974971;28;20551;-80
2021/01/15 01:38:31;;;;;;;7.43;4.43;;;2.00;99.90;;;;;;5007893;28;20175;-79
2021/01/15 01:40:57;;;;;;;10.32;5.00;;;2.00;99.90;;;;;;4991006;28;20539;-79
2021/01/15 01:43:23;;;;;;;7.50;3.80;;;1.90;99.90;;;;;;4957919;28;20266;-79
2021/01/15 01:45:52;;;;;;;8.17;4.50;;;2.00;99.90;;;;;;4958486;28;20225;-80
2021/01/15 01:48:19;;;;;;;8.45;3.85;;;2.10;99.90;;;;;;4974571;28;20183;-79
2021/01/15 01:50:46;;;;;;;8.68;4.50;;;2.00;99.90;;;;;;4971876;28;20175;-79
2021/01/15 01:53:18;;;;;;;7.93;4.72;;;2.00;99.90;;;;;;4996573;28;20220;-79
2021/01/15 01:55:44;;;;;;;7.47;4.28;;;1.90;99.90;;;;;;4982499;28;20202;-77
2021/01/15 01:58:12;;;;;;;8.82;4.20;;;1.90;99.90;;;;;;4980273;28;20182;-80
2021/01/15 02:00:40;;;;;;;16.80;5.72;;;1.90;99.90;;;;;;4979568;28;20179;-79
2021/01/15 02:03:06;;;;;;;8.77;5.90;;;1.90;99.90;;;;;;4996588;28;20171;-79
2021/01/15 02:05:32;;;;;;;7.15;3.88;;;1.90;99.90;;;;;;4963582;28;20290;-78
2021/01/15 02:07:57;;;;;;;7.47;4.77;;;1.90;99.90;;;;;;4996365;28;20681;-79
2021/01/15 02:10:32;;;;;;;5.80;3.40;;;1.90;99.90;;;;;;4995018;28;20171;-79
2021/01/15 02:13:19;;;;;;;6.43;3.85;;;1.90;99.90;;;;;;4997276;28;20213;-79
2021/01/15 02:15:58;;;;;;;9.95;3.85;;;1.90;99.90;;;;;;4982398;28;20290;-79
2021/01/15 02:18:44;;;;;;;7.93;3.50;;;2.00;99.90;;;;;;4997923;28;20170;-79
2021/01/15 02:22:07;;;;;;;7.95;3.92;;;2.00;99.90;;;;;;4997183;28;20701;-79
2021/01/15 02:24:35;;;;;;;5.72;4.25;;;1.90;99.90;;;;;;4994475;28;20597;-78
2021/01/15 02:27:28;;;;;;;5.65;3.20;;;1.80;99.90;;;;;;4994151;28;20203;-79
2021/01/15 02:30:20;;;;;;;5.45;3.30;;;1.90;99.90;;;;;;4996589;28;20162;-78
2021/01/15 02:32:51;;;;;;;5.25;3.45;;;1.90;99.90;;;;;;4995928;28;20619;-80
2021/01/15 02:35:54;;;;;;;8.38;4.78;;;1.90;99.90;;;;;;4979592;28;20199;-82
2021/01/15 02:38:29;;;;;;;5.68;3.72;;;1.90;99.90;;;;;;4979628;28;20270;-79
2021/01/15 02:41:10;;;;;;;7.53;4.82;;;1.90;99.90;;;;;;4997799;28;20228;-80
2021/01/15 02:43:37;;;;;;;8.00;4.20;;;1.90;99.90;;;;;;4996068;28;20175;-79
2021/01/15 02:46:05;;;;;;;6.10;3.53;;;2.00;99.90;;;;;;4982732;28;20206;-79
2021/01/15 02:48:33;;;;;;;5.57;3.55;;;2.00;99.90;;;;;;4979208;28;20171;-80
2021/01/15 02:50:59;;;;;;;9.13;4.50;;;1.90;99.90;;;;;;4997709;28;20170;-79
2021/01/15 02:53:28;;;;;;;14.38;5.75;;;1.90;99.90;;;;;;4997079;28;20451;-79
2021/01/15 02:55:54;;;;;;;8.40;4.50;;;1.90;99.90;;;;;;4995875;28;20194;-79
2021/01/15 02:58:20;;;;;;;6.13;4.20;;;1.90;99.90;;;;;;4981029;28;20220;-81
2021/01/15 03:00:45;;;;;;;7.53;4.50;;;2.00;99.90;;;;;;4995360;28;20171;-80
2021/01/15 03:03:34;;;;;;;7.70;4.80;;;2.10;99.90;;;;;;4996172;28;20238;-79
2021/01/15 03:06:10;;;;;;;6.15;4.55;;;2.10;99.90;;;;;;4996943;28;20670;-80
2021/01/15 03:08:38;;;;;;;7.90;5.25;;;1.90;99.90;;;;;;4995771;28;20249;-79
2021/01/15 03:11:04;;;;;;;11.02;5.40;;;1.80;99.90;;;;;;4978662;28;20170;-81
2021/01/15 03:14:30;;;;;;;6.13;3.88;;;1.80;99.90;;;;;;4996265;28;20226;-79
2021/01/15 03:17:56;;;;;;;11.05;4.60;;;1.90;99.90;;;;;;4882116;29;20580;-77
2021/01/15 03:20:23;;;;;;;4.93;3.30;;;1.80;99.90;;;;;;4987426;28;20186;-80
2021/01/15 03:22:50;;;;;;;6.13;3.60;;;1.90;99.90;;;;;;5000482;28;20554;-78
2021/01/15 03:25:17;;;;;;;5.30;4.55;;;1.90;99.90;;;;;;4996047;28;20705;-78
2021/01/15 03:27:49;;;;;;;8.23;4.45;;;1.80;99.90;;;;;;4977165;28;20344;-78
2021/01/15 03:30:17;;;;;;;5.95;3.72;;;1.70;99.90;;;;;;4977397;28;20175;-80
2021/01/15 03:32:44;;;;;;;8.30;3.58;;;1.70;99.90;;;;;;4994645;28;20203;-79
2021/01/15 03:35:22;;;;;;;9.45;5.03;;;1.70;99.90;;;;;;4978850;28;20199;-79
2021/01/15 03:37:58;;;;;;;6.28;4.28;;;1.70;99.90;;;;;;4965215;28;20179;-78
2021/01/15 03:40:36;;;;;;;13.40;4.45;;;1.70;99.90;;;;;;4993565;28;20183;-78
2021/01/15 03:43:19;;;;;;;6.32;3.22;;;1.70;99.90;;;;;;4996601;28;20175;-79
2021/01/15 03:45:46;;;;;;;8.95;3.75;;;1.70;99.90;;;;;;4976556;28;20236;-79
2021/01/15 03:48:18;;;;;;;9.07;4.70;;;1.70;99.90;;;;;;4993520;28;20708;-78
2021/01/15 03:50:44;;;;;;;7.45;4.22;;;1.70;99.90;;;;;;4996141;28;20669;-79
2021/01/15 03:53:17;;;;;;;6.28;3.35;;;1.80;99.90;;;;;;4995832;28;20718;-78
2021/01/15 03:55:43;;;;;;;8.82;4.93;;;1.80;99.90;;;;;;4993796;28;20195;-78
2021/01/15 03:58:09;;;;;;;8.32;4.18;;;1.80;99.90;;;;;;4976292;28;20183;-78
2021/01/15 04:00:35;;;;;;;7.18;3.70;;;2.00;99.90;;;;;;4976749;28;20239;-78
2021/01/15 04:03:01;;;;;;;6.60;4.47;;;2.00;99.90;;;;;;4993854;28;20171;-79
2021/01/15 04:05:26;;;;;;;5.93;3.70;;;1.90;99.90;;;;;;4993698;28;20199;-79
2021/01/15 04:07:52;;;;;;;5.27;3.70;;;1.90;99.90;;;;;;4980546;28;20445;-80
2021/01/15 04:10:19;;;;;;;6.90;3.83;;;2.00;99.90;;;;;;4980297;28;20171;-78
2021/01/15 04:12:45;;;;;;;9.25;4.55;;;1.90;99.90;;;;;;4995212;28;20194;-79
2021/01/15 04:15:13;;;;;;;10.13;4.30;;;1.80;99.90;;;;;;4980060;28;20195;-79
2021/01/15 04:17:40;;;;;;;6.50;4.28;;;1.70;99.90;;;;;;4980450;28;20218;-79
2021/01/15 04:20:10;;;;;;;6.70;4.38;;;1.70;99.90;;;;;;4998508;28;20542;-79
2021/01/15 04:22:44;;;;;;;6.35;4.07;;;1.70;99.90;;;;;;4981346;28;20168;-80
2021/01/15 04:25:11;;;;;;;5.32;3.53;;;1.80;99.90;;;;;;4967094;28;20211;-79
2021/01/15 04:27:38;;;;;;;6.05;4.45;;;1.80;99.90;;;;;;5000963;28;20194;-79
2021/01/15 04:30:06;;;;;;;7.30;3.80;;;1.70;99.90;;;;;;4978565;28;20242;-80
2021/01/15 04:32:32;;;;;;;7.05;3.85;;;1.70;99.90;;;;;;4995570;28;20170;-79
2021/01/15 04:34:59;;;;;;;6.40;4.35;;;1.70;99.90;;;;;;4978762;28;20205;-78
2021/01/15 04:37:25;;;;;;;8.25;4.78;;;1.80;99.90;;;;;;4979093;28;20175;-79
2021/01/15 04:39:51;;;;;;;8.40;4.13;;;1.80;99.90;;;;;;4978452;28;20174;-78
2021/01/15 04:42:18;;;;;;;8.00;4.90;;;1.80;99.90;;;;;;4977523;28;20171;-78
2021/01/15 04:44:46;;;;;;;7.38;4.00;;;1.70;99.90;;;;;;4995448;28;20984;-78
2021/01/15 04:47:13;;;;;;;7.60;4.00;;;1.70;99.90;;;;;;4977478;28;20704;-80
2021/01/15 04:49:39;;;;;;;7.47;5.60;;;1.80;99.90;;;;;;4978452;28;20171;-79
2021/01/15 04:52:13;;;;;;;5.88;4.03;;;1.70;99.90;;;;;;4978645;28;20267;-78
2021/01/15 04:54:40;;;;;;;6.07;3.70;;;1.70;99.90;;;;;;4995323;28;20946;-78
2021/01/15 04:57:11;;;;;;;4.07;3.67;;;1.70;99.90;;;;;;4977568;28;20516;-78
2021/01/15 04:59:45;;;;;;;8.52;4.57;;;1.70;99.90;;;;;;4995350;28;20163;-78
2021/01/15 05:02:13;;;;;;;7.80;4.30;;;1.70;99.90;;;;;;4995208;28;20186;-78
2021/01/15 05:04:39;;;;;;;6.40;4.57;;;1.70;99.90;;;;;;4994920;28;20190;-78
2021/01/15 05:07:09;;;;;;;7.25;3.92;;;1.70;99.90;;;;;;4996450;28;20237;-79
2021/01/15 05:09:46;;;;;;;8.65;4.10;;;1.60;99.90;;;;;;4977079;28;20241;-79
2021/01/15 05:12:16;;;;;;;6.30;2.95;;;1.40;99.90;;;;;;4978751;28;20177;-79
2021/01/15 05:14:46;;;;;;;7.53;4.43;;;1.30;99.90;;;;;;4962523;28;20222;-78
2021/01/15 05:17:11;;;;;;;6.68;4.43;;;1.40;99.90;;;;;;4982627;28;20234;-79
2021/01/15 05:19:42;;;;;;;4.47;2.80;;;1.50;99.90;;;;;;4991007;28;20167;-82
2021/01/15 05:22:09;;;;;;;5.82;3.72;;;1.40;99.90;;;;;;4996883;28;20614;-79
2021/01/15 05:24:35;;;;;;;9.18;4.60;;;1.40;99.90;;;;;;4978823;28;20223;-79
2021/01/15 05:27:38;;;;;;;5.88;3.35;;;1.40;99.90;;;;;;4997319;28;20206;-78
2021/01/15 05:30:14;;;;;;;5.05;3.53;;;1.40;99.90;;;;;;5000529;28;20177;-79
2021/01/15 05:32:40;;;;;;;7.97;3.40;;;1.50;99.90;;;;;;4995274;28;20162;-79
2021/01/15 05:35:06;;;;;;;7.20;3.70;;;1.40;99.90;;;;;;4998123;28;20189;-80
2021/01/15 05:37:33;;;;;;;8.98;4.90;;;1.40;99.90;;;;;;4998325;28;20414;-79
2021/01/15 05:40:03;;;;;;;3.72;2.67;;;1.20;99.90;;;;;;4997377;28;20178;-79
2021/01/15 05:42:28;;;;;;;5.25;3.42;;;1.10;99.90;;;;;;4979485;28;20209;-79
2021/01/15 05:45:12;;;;;;;8.20;4.27;;;1.20;99.90;;;;;;4979404;28;20226;-79
2021/01/15 05:47:47;;;;;;;6.80;3.17;;;1.30;99.90;;;;;;4976582;28;20210;-79
2021/01/15 05:50:14;;;;;;;7.00;4.53;;;1.30;99.90;;;;;;4962186;28;20179;-78
2021/01/15 05:52:58;;;;;;;6.63;3.63;;;1.30;99.90;;;;;;4996162;28;20194;-79
2021/01/15 05:55:25;;;;;;;6.13;3.92;;;1.20;99.90;;;;;;4977958;28;20210;-81
2021/01/15 05:57:51;;;;;;;6.03;4.25;;;1.20;99.90;;;;;;4979296;28;20175;-79
2021/01/15 06:00:29;;;;;;;3.70;2.80;;;1.20;99.90;;;;;;4994899;28;20181;-79
2021/01/15 06:02:57;;;;;;;4.93;3.13;;;1.30;99.90;;;;;;4999118;28;20173;-79
2021/01/15 06:05:27;;;;;;;6.38;3.85;;;1.30;99.90;;;;;;4978282;28;20261;-78
2021/01/15 06:08:00;;;;;;;7.40;4.25;;;1.30;99.90;;;;;;4976668;28;20236;-79
2021/01/15 06:10:27;;;;;;;8.25;4.47;;;1.30;99.90;;;;;;4993356;28;20174;-78
2021/01/15 06:12:53;;;;;;;6.78;4.75;;;1.20;99.90;;;;;;4975577;28;20191;-78
2021/01/15 06:15:20;;;;;;;4.28;2.90;;;1.30;99.90;;;;;;4962437;28;20209;-79
2021/01/15 06:17:50;;;;;;;4.68;3.00;;;1.30;99.90;;;;;;4964268;28;20179;-79
2021/01/15 06:20:22;;;;;;;6.40;3.58;;;1.40;99.90;;;;;;4980578;28;20528;-79
2021/01/15 06:22:51;;;;;;;8.82;5.38;;;1.40;99.90;;;;;;4977280;28;20182;-78
2021/01/15 06:25:21;;;;;;;10.98;4.05;;;1.40;99.90;;;;;;4975618;28;20198;-79
2021/01/15 06:27:47;;;;;;;7.28;4.30;;;1.30;99.90;;;;;;4976130;28;20605;-79
2021/01/15 06:30:13;;;;;;;6.40;4.47;;;1.30;99.90;;;;;;4995517;28;20448;-78
2021/01/15 06:32:40;;;;;;;10.93;5.13;;;1.30;99.90;;;;;;4997646;28;20233;-79
2021/01/15 06:35:09;;;;;;;7.95;4.68;;;1.30;99.90;;;;;;4991585;28;20481;-79
2021/01/15 06:37:41;;;;;;;11.73;4.65;;;1.30;99.90;;;;;;4994400;28;20356;-81
2021/01/15 06:40:09;;;;;;;8.57;4.50;;;1.20;99.90;;;;;;4995514;28;20175;-79
2021/01/15 06:42:45;;;;;;;8.25;4.25;;;1.20;99.90;;;;;;4994208;28;20520;-79
2021/01/15 06:45:14;;;;;;;8.80;4.88;;;1.20;99.90;;;;;;4977838;28;20206;-79
2021/01/15 06:47:46;;;;;;;8.43;5.32;;;1.20;99.90;;;;;;4982515;28;20214;-79
2021/01/15 06:50:18;;;;;;;7.32;4.40;;;1.30;99.90;;;;;;4997383;28;20183;-79
2021/01/15 06:52:50;;;;;;;7.32;4.38;;;1.20;99.90;;;;;;4977358;28;20179;-81
2021/01/15 06:55:20;;;;;;;9.57;4.78;;;1.10;99.90;;;;;;4981692;28;20225;-79
2021/01/15 06:58:04;;;;;;;7.15;3.95;;;1.10;99.90;;;;;;4993206;28;20538;-77
2021/01/15 07:00:36;;;;;;;7.10;4.32;;;1.10;99.90;;;;;;5010301;28;20171;-82
2021/01/15 07:03:53;;;;;;;6.95;4.05;;;1.10;99.90;;;;;;5016112;28;20185;-83
2021/01/15 07:06:26;;;;;;;7.32;4.50;;;1.20;99.90;;;;;;4917631;29;20217;-81
2021/01/15 07:08:54;;;;;;;7.45;3.75;;;1.10;99.90;;;;;;4916214;29;20823;-80
2021/01/15 07:11:23;;;;;;;7.63;3.75;;;1.20;99.90;;;;;;4949880;28;20217;-80
2021/01/15 07:13:56;;;;;;;6.82;3.95;;;1.20;99.90;;;;;;4977567;28;20167;-80
2021/01/15 07:16:29;;;;;;;5.85;4.05;;;1.10;99.90;;;;;;4977942;28;20726;-79
2021/01/15 07:19:21;;;;;;;7.97;4.00;;;1.20;99.90;;;;;;4994008;28;20167;-80
2021/01/15 07:22:01;;;;;;;6.00;3.95;;;1.20;99.90;;;;;;4993978;28;20260;-80
2021/01/15 07:24:30;;;;;;;6.70;3.88;;;1.10;99.90;;;;;;4976663;28;20308;-79
2021/01/15 07:26:55;;;;;;;6.13;3.35;;;1.20;99.90;;;;;;4976432;28;20575;-78
2021/01/15 07:29:25;;;;;;;8.50;5.37;;;1.10;99.90;;;;;;4978073;28;20178;-80
2021/01/15 07:32:01;;;;;;;4.85;3.80;;;1.10;99.90;;;;;;4977426;28;20646;-80
2021/01/15 07:34:28;;;;;;;7.03;4.10;;;1.00;99.90;;;;;;4993399;28;20179;-82
2021/01/15 07:36:57;;;;;;;6.25;3.92;;;1.00;99.90;;;;;;4994187;28;20171;-79
2021/01/15 07:39:22;;;;;;;9.77;4.13;;;1.10;99.90;;;;;;4980490;28;20179;-79
2021/01/15 07:41:53;;;;;;;8.50;4.97;;;1.10;99.90;;;;;;4993752;28;20179;-78
2021/01/15 07:44:22;;;;;;;5.25;2.72;;;1.00;99.90;;;;;;4979823;28;20218;-79
2021/01/15 07:47:11;;;;;;;4.38;3.30;;;1.00;99.90;;;;;;4995113;28;20198;-79
2021/01/15 07:49:44;;;;;;;6.78;4.10;;;1.10;99.90;;;;;;4996868;28;20230;-81
2021/01/15 07:52:11;;;;;;;7.63;4.00;;;1.40;99.90;;;;;;4998723;28;20167;-80
2021/01/15 07:54:46;;;;;;;6.72;4.57;;;1.90;99.90;;;;;;4964412;28;20202;-79
2021/01/15 07:57:13;;;;;;;7.57;4.50;;;2.10;99.90;;;;;;5004600;28;20170;-80
2021/01/15 07:59:39;;;;;;;5.63;3.55;;;1.80;99.90;;;;;;4999703;28;20175;-78
2021/01/15 08:02:05;;;;;;;6.37;4.50;;;1.70;99.90;;;;;;5002695;28;20265;-80
2021/01/15 08:04:30;;;;;;;5.65;3.55;;;1.80;99.90;;;;;;4987474;28;20203;-80
2021/01/15 08:07:10;;;;;;;6.27;4.23;;;2.00;99.90;;;;;;4988889;28;20209;-80
2021/01/15 08:09:42;;;;;;;4.32;3.40;;;2.10;99.90;;;;;;4973674;28;20210;-81
2021/01/15 08:12:09;;;;;;;5.78;4.50;;;2.00;99.90;;;;;;5011269;28;20192;-81
2021/01/15 08:14:35;;;;;;;11.30;3.92;;;2.10;99.90;;;;;;4987160;28;20202;-79
2021/01/15 08:17:03;;;;;;;3.93;3.37;;;2.10;99.90;;;;;;5004686;28;20182;-80
2021/01/15 08:19:37;;;;;;;7.10;4.18;;;2.00;99.90;;;;;;5002346;28;20429;-80
2021/01/15 08:22:05;;;;;;;8.55;3.85;;;2.10;99.90;;;;;;5000488;28;20178;-81
2021/01/15 08:24:31;;;;;;;4.38;3.00;;;2.10;99.90;;;;;;5003388;28;20218;-80
2021/01/15 08:26:57;;;;;;;5.67;4.23;;;2.00;99.90;;;;;;4974393;28;20218;-82
2021/01/15 08:29:25;;;;;;;5.43;3.58;;;2.10;99.90;;;;;;5024159;28;20265;-80
2021/01/15 08:31:58;;;;;;;7.18;4.55;;;2.20;99.90;;;;;;4968276;28;20198;-80
2021/01/15 08:34:31;;;;;;;8.23;4.32;;;2.20;99.90;;;;;;5003006;28;20198;-78
2021/01/15 08:36:59;;;;;;;7.18;4.90;;;2.10;99.90;;;;;;4984831;28;20198;-82
2021/01/15 08:39:24;;;;;;;5.18;3.85;;;2.00;99.90;;;;;;5000326;28;20197;-83
2021/01/15 08:41:59;;;;;;;6.67;4.20;;;1.80;99.90;;;;;;4985823;28;20193;-79
2021/01/15 08:44:35;;;;;;;4.95;3.42;;;1.40;99.90;;;;;;4985727;28;20218;-79
2021/01/15 08:47:08;;;;;;;4.75;4.00;;;1.20;99.90;;;;;;5003646;28;20201;-80
2021/01/15 08:49:33;;;;;;;6.65;4.55;;;1.20;99.90;;;;;;5003102;28;20174;-79
2021/01/15 08:52:01;;;;;;;7.40;3.57;;;1.20;99.90;;;;;;5004129;28;20167;-80
2021/01/15 08:54:28;;;;;;;9.23;4.05;;;1.20;99.90;;;;;;4999876;28;20190;-79
2021/01/15 08:56:55;;;;;;;6.00;5.25;;;1.20;99.90;;;;;;5004375;28;20230;-80
2021/01/15 08:59:27;;;;;;;6.75;3.97;;;1.20;99.90;;;;;;4990015;28;20194;-80
2021/01/15 09:01:54;;;;;;;8.77;4.63;;;1.20;99.90;;;;;;5007711;28;20163;-81
2021/01/15 09:04:25;;;;;;;10.15;4.53;;;1.20;99.90;;;;;;5007927;28;20234;-81
2021/01/15 09:06:53;;;;;;;13.32;4.57;;;1.10;99.90;;;;;;5009367;28;20253;-81
2021/01/15 09:09:24;;;;;;;6.07;3.78;;;1.10;99.90;;;;;;5003654;28;20516;-80
2021/01/15 09:11:51;;;;;;;10.90;4.13;;;1.00;99.90;;;;;;4986463;28;20170;-81
2021/01/15 09:14:23;;;;;;;7.25;4.38;;;1.00;99.90;;;;;;5007111;28;20171;-81
2021/01/15 09:16:50;;;;;;;5.75;3.00;;;0.90;99.90;;;;;;5004778;28;20269;-80
2021/01/15 09:19:16;;;;;;;10.30;4.78;;;1.00;99.90;;;;;;5001462;28;20174;-80
2021/01/15 09:21:50;;;;;;;5.78;3.88;;;1.00;99.90;;;;;;4983659;28;20185;-80
2021/01/15 09:24:18;;;;;;;8.32;4.75;;;1.00;99.90;;;;;;4987586;28;20183;-81
2021/01/15 09:26:47;;;;;;;6.70;3.97;;;1.00;99.90;;;;;;4990812;28;20210;-80
2021/01/15 09:29:14;;;;;;;5.68;4.20;;;1.00;99.90;;;;;;5005179;28;20190;-80
2021/01/15 09:31:41;;;;;;;6.05;3.65;;;1.00;99.90;;;;;;5007409;28;20185;-80
2021/01/15 09:34:10;;;;;;;7.15;3.92;;;1.10;99.90;;;;;;4973759;28;20171;-80
2021/01/15 09:36:43;;;;;;;7.43;5.07;;;1.10;99.90;;;;;;5011248;28;20242;-81
2021/01/15 09:39:11;;;;;;;8.25;4.07;;;1.10;99.90;;;;;;4992405;28;20193;-81
2021/01/15 09:41:48;;;;;;;10.00;5.60;;;1.10;99.90;;;;;;4990850;28;20205;-81
2021/01/15 09:44:16;;;;;;;9.73;4.97;;;1.10;99.90;;;;;;5010501;28;20238;-80
2021/01/15 09:46:42;;;;;;;7.05;5.20;;;1.00;99.90;;;;;;4991163;28;20203;-81
2021/01/15 09:49:08;;;;;;;8.60;4.47;;;0.90;99.90;;;;;;5004560;28;20216;-79
2021/01/15 09:51:35;;;;;;;8.30;4.40;;;0.90;99.90;;;;;;5009902;28;20258;-81
2021/01/15 09:54:00;;;;;;;6.00;3.35;;;0.80;99.90;;;;;;5011237;28;20437;-81
2021/01/15 09:56:28;;;;;;;12.20;4.53;;;0.80;99.90;;;;;;4991116;28;20206;-81
2021/01/15 09:58:58;;;;;;;7.25;5.95;;;0.80;99.90;;;;;;5006657;28;20179;-80
2021/01/15 10:01:25;;;;;;;9.77;5.20;;;0.90;99.90;;;;;;5004383;28;20166;-80
2021/01/15 10:03:55;;;;;;;7.82;4.43;;;0.80;99.90;;;;;;5005183;28;20233;-80
2021/01/15 10:06:22;;;;;;;9.05;4.65;;;0.70;99.90;;;;;;5004702;28;20203;-80
2021/01/15 10:08:49;;;;;;;6.55;3.75;;;0.80;99.90;;;;;;4991466;28;20167;-78
2021/01/15 10:11:24;;;;;;;7.75;4.78;;;0.80;99.90;;;;;;4987259;28;20171;-80
2021/01/15 10:13:56;;;;;;;9.65;5.03;;;0.80;99.90;;;;;;4992840;28;20252;-80
2021/01/15 10:16:22;;;;;;;5.90;4.13;;;0.80;99.90;;;;;;4991845;28;20209;-79
2021/01/15 10:18:48;;;;;;;11.02;4.25;;;0.80;99.90;;;;;;4976903;28;20250;-81
2021/01/15 10:21:17;;;;;;;7.93;5.20;;;0.80;99.90;;;;;;4992670;28;20186;-81
2021/01/15 10:23:43;;;;;;;11.52;5.75;;;0.70;99.90;;;;;;4992441;28;20182;-81
2021/01/15 10:26:11;;;;;;;7.20;4.20;;;0.70;99.90;;;;;;4990458;28;20610;-80
2021/01/15 10:28:37;;;;;;;6.88;3.20;;;0.80;99.90;;;;;;4981180;28;20206;-79
2021/01/15 10:31:02;;;;;;;6.10;3.87;;;0.80;99.90;;;;;;4986484;28;20179;-80
2021/01/15 10:33:28;;;;;;;9.40;5.17;;;0.80;99.90;;;;;;4970981;28;20177;-80
2021/01/15 10:35:54;;;;;;;7.83;4.97;;;0.80;99.90;;;;;;5002294;28;20554;-82
2021/01/15 10:38:19;;;;;;;8.57;5.10;;;0.70;99.90;;;;;;4971427;28;20590;-82
2021/01/15 10:40:46;;;;;;;7.13;4.70;;;0.80;99.90;;;;;;5003894;28;20201;-82
2021/01/15 10:43:12;;;;;;;9.82;4.25;;;0.80;99.90;;;;;;4994839;28;20205;-80
2021/01/15 10:45:39;;;;;;;8.93;4.35;;;0.70;99.90;;;;;;5015027;28;20263;-81
2021/01/15 10:48:06;;;;;;;6.57;4.18;;;0.80;99.90;;;;;;4974925;28;20607;-81
2021/01/15 10:50:34;;;;;;;7.82;3.97;;;0.80;99.90;;;;;;4967901;28;20171;-79
2021/01/15 10:53:00;;;;;;;10.55;6.00;;;0.80;99.90;;;;;;5000629;28;20322;-79
2021/01/15 10:55:29;;;;;;;6.63;3.90;;;0.80;99.90;;;;;;4988092;28;20277;-84
2021/01/15 10:57:55;;;;;;;6.07;3.17;;;0.90;99.90;;;;;;4988929;28;20183;-82
2021/01/15 11:00:21;;;;;;;6.07;4.10;;;1.00;99.90;;;;;;5005389;28;20183;-81
2021/01/15 11:02:50;;;;;;;7.25;4.63;;;1.10;99.90;;;;;;4997843;28;20179;-81
2021/01/15 11:05:16;;;;;;;6.70;3.97;;;1.10;99.90;;;;;;4999554;28;20254;-82
2021/01/15 11:07:44;;;;;;;9.43;5.00;;;1.10;99.90;;;;;;4993744;28;20198;-82
2021/01/15 11:10:13;;;;;;;10.23;5.45;;;1.00;99.90;;;;;;4990835;28;20174;-80
2021/01/15 11:12:40;;;;;;;10.60;5.10;;;1.00;99.90;;;;;;4970931;28;20665;-83
2021/01/15 11:15:09;;;;;;;6.97;3.88;;;1.10;99.90;;;;;;4986517;28;20194;-81
2021/01/15 11:17:39;;;;;;;7.13;4.15;;;1.30;99.90;;;;;;4985320;28;20189;-83
2021/01/15 11:20:07;;;;;;;6.13;2.80;;;1.20;99.90;;;;;;5000203;28;20198;-80
2021/01/15 11:22:34;;;;;;;6.05;4.00;;;1.20;99.90;;;;;;4997403;28;20182;-80
2021/01/15 11:25:00;;;;;;;7.78;3.95;;;1.20;99.90;;;;;;4979148;28;20272;-82
2021/01/15 11:27:26;;;;;;;4.90;3.37;;;1.30;99.90;;;;;;4996848;28;20207;-80
2021/01/15 11:29:51;;;;;;;6.90;4.73;;;1.20;99.90;;;;;;4996915;28;20410;-82
2021/01/15 11:32:18;;;;;;;6.93;4.77;;;1.00;99.90;;;;;;4999487;28;20178;-80
2021/01/15 11:34:44;;;;;;;6.38;5.25;;;1.00;99.90;;;;;;5000847;28;20191;-81
2021/01/15 11:37:10;;;;;;;8.57;4.68;;;1.20;99.90;;;;;;4966016;28;20178;-80
2021/01/15 11:39:36;;;;;;;8.17;4.13;;;1.30;99.90;;;;;;5000470;28;20262;-81
2021/01/15 11:42:02;;;;;;;5.17;4.30;;;1.20;99.90;;;;;;4983370;28;20421;-81
2021/01/15 11:44:27;;;;;;;7.50;3.67;;;1.00;99.90;;;;;;4969571;28;20206;-80
2021/01/15 11:46:56;;;;;;;9.70;4.87;;;0.90;99.90;;;;;;4984521;28;20528;-81
2021/01/15 11:49:21;;;;;;;7.72;3.88;;;0.90;99.90;;;;;;4984266;28;20178;-82
2021/01/15 11:51:47;;;;;;;7.93;4.17;;;1.10;99.90;;;;;;4991253;28;20795;-82
2021/01/15 11:54:13;;;;;;;8.50;4.80;;;1.20;99.90;;;;;;4993528;28;20167;-81
2021/01/15 11:56:41;;;;;;;7.37;4.50;;;1.40;99.90;;;;;;4991389;28;20179;-82
2021/01/15 11:59:10;;;;;;;8.45;5.15;;;1.40;99.90;;;;;;4988606;28;20186;-79
2021/01/15 12:01:36;;;;;;;6.78;4.25;;;1.20;99.90;;;;;;4989055;28;20590;-81
2021/01/15 12:04:01;;;;;;;7.13;4.17;;;0.90;99.90;;;;;;4971687;28;20225;-82
2021/01/15 12:06:27;;;;;;;8.80;5.60;;;1.00;99.90;;;;;;4989858;28;20206;-81
2021/01/15 12:08:53;;;;;;;7.33;5.27;;;1.10;99.90;;;;;;5002926;28;20545;-81
2021/01/15 12:11:19;;;;;;;5.73;3.70;;;1.30;99.90;;;;;;4985511;28;20201;-81
2021/01/15 12:13:45;;;;;;;6.35;4.20;;;1.30;99.90;;;;;;4985465;28;20410;-82
2021/01/15 12:16:11;;;;;;;7.40;4.70;;;1.40;99.90;;;;;;4970633;28;20198;-83
2021/01/15 12:18:37;;;;;;;5.60;3.67;;;1.30;99.90;;;;;;4987688;28;20175;-81
2021/01/15 12:21:05;;;;;;;8.27;4.30;;;1.20;99.90;;;;;;4985280;28;20182;-81
2021/01/15 12:23:31;;;;;;;8.15;4.30;;;1.10;99.90;;;;;;5001756;28;20190;-81
2021/01/15 12:25:57;;;;;;;9.33;5.00;;;1.20;99.90;;;;;;4986558;28;20218;-84
2021/01/15 12:28:23;;;;;;;10.73;5.50;;;1.20;99.90;;;;;;4969045;28;20542;-82
2021/01/15 12:30:52;;;;;;;5.70;4.23;;;1.30;99.90;;;;;;4999156;28;20198;-79
2021/01/15 12:33:20;;;;;;;5.68;4.18;;;1.10;99.90;;;;;;4982314;28;20179;-79
2021/01/15 12:35:48;;;;;;;7.97;5.05;;;1.00;99.90;;;;;;4981755;28;20205;-81
2021/01/15 12:38:19;;;;;;;8.00;3.67;;;1.20;99.90;;;;;;4982375;28;20182;-79
2021/01/15 12:40:46;;;;;;;9.90;3.83;;;0.90;99.90;;;;;;5003573;28;20166;-78
2021/01/15 12:43:13;;;;;;;9.30;4.90;;;0.90;99.90;;;;;;4982400;28;20174;-79
2021/01/15 12:45:43;;;;;;;5.22;3.17;;;0.80;99.90;;;;;;4985087;28;20191;-79
2021/01/15 12:48:09;;;;;;;6.45;4.07;;;0.90;99.90;;;;;;4966546;28;20203;-80
2021/01/15 12:50:35;;;;;;;7.07;3.22;;;1.00;99.90;;;;;;4966557;28;20175;-80
2021/01/15 12:53:01;;;;;;;9.53;4.37;;;1.00;99.90;;;;;;4983332;28;20246;-82
2021/01/15 12:55:27;;;;;;;6.50;5.13;;;0.90;99.90;;;;;;4968483;28;20218;-83
2021/01/15 12:57:54;;;;;;;11.57;4.50;;;1.00;99.90;;;;;;4969995;28;20422;-81
2021/01/15 13:00:20;;;;;;;15.63;8.07;;;1.20;99.90;;;;;;4985811;28;20183;-85
2021/01/15 13:02:46;;;;;;;6.88;5.05;;;1.20;99.90;;;;;;4968783;28;20179;-80
2021/01/15 13:05:12;;;;;;;4.07;3.43;;;1.50;99.90;;;;;;4984222;28;20712;-82
2021/01/15 13:07:38;;;;;;;5.90;3.17;;;1.70;99.90;;;;;;4968650;28;20306;-81